Time;durP1;ratioP1;P1;durP2;ratioP2;P2;SDS_P1;SDS_P2;PMS_P1;PMS_P2;Temp;Humidity;BMP_temperature;BMP_pressure;BME280_temperature;BME280_humidity;BME280_pressure;Samples;Min_cycle;Max_cycle;Signal;HPM_P1;HPM_P2
2023/03/05 00:01:36;;;;;;;7.63;2.10;;;3.50;99.90;;;-141.84;61.76;19126.97;5070732;28;20716;-66
2023/03/05 00:04:08;;;;;;;6.80;2.27;;;3.50;99.90;;;-141.84;61.94;19122.91;5070619;28;20314;-64
2023/03/05 00:06:36;;;;;;;5.57;1.90;;;3.50;99.90;;;-141.84;62.27;19102.56;5070569;28;20308;-64
2023/03/05 00:09:06;;;;;;;6.20;2.50;;;3.50;99.90;;;-141.84;62.51;19114.78;5069676;28;20226;-65
2023/03/05 00:11:35;;;;;;;4.47;2.10;;;3.50;99.90;;;-141.84;62.75;19102.56;5051340;28;20206;-64
2023/03/05 00:14:05;;;;;;;9.20;2.13;;;3.40;99.90;;;-141.84;62.73;19139.16;5050532;28;20239;-64
2023/03/05 00:16:33;;;;;;;6.40;2.30;;;3.40;99.90;;;-141.84;62.21;19110.72;5060621;28;20310;-64
2023/03/05 00:19:02;;;;;;;9.67;2.30;;;3.40;99.90;;;-141.84;62.97;19059.91;5035655;28;20223;-64
2023/03/05 00:21:34;;;;;;;6.90;2.37;;;3.40;99.90;;;-141.84;62.84;19088.34;5070858;28;20229;-65
2023/03/05 00:24:07;;;;;;;7.73;2.20;;;3.40;99.90;;;-141.84;63.17;19108.69;5070015;28;20742;-64
2023/03/05 00:26:39;;;;;;;6.20;1.93;;;3.40;99.90;;;-141.84;62.97;19118.84;5071099;28;20193;-63
2023/03/05 00:29:08;;;;;;;5.40;1.63;;;3.40;99.90;;;-141.84;61.85;19129.00;5070340;28;20578;-64
2023/03/05 00:31:37;;;;;;;6.47;1.70;;;3.40;99.90;;;-141.84;61.95;19059.91;5070380;28;20252;-64
2023/03/05 00:34:09;;;;;;;7.10;1.90;;;3.50;99.90;;;-141.84;61.97;19106.66;5070230;28;20288;-64
2023/03/05 00:36:40;;;;;;;6.90;1.80;;;3.40;99.90;;;-141.84;62.58;19063.97;5082196;28;20236;-64
2023/03/05 00:39:09;;;;;;;3.90;1.60;;;3.30;99.90;;;-141.84;62.47;19084.28;5069014;28;20235;-63
2023/03/05 00:41:38;;;;;;;6.53;1.60;;;3.40;99.90;;;-141.84;62.62;19070.06;5070795;28;20204;-63
2023/03/05 00:44:07;;;;;;;4.27;2.10;;;3.40;99.90;;;-141.84;62.70;19063.97;5050952;28;20231;-64
2023/03/05 00:46:36;;;;;;;5.43;2.00;;;3.30;99.90;;;-141.84;62.55;19043.66;5069951;28;20236;-65
2023/03/05 00:49:05;;;;;;;6.63;2.00;;;3.30;99.90;;;-141.84;62.12;19104.59;5051463;28;20312;-64
2023/03/05 00:51:33;;;;;;;7.87;1.67;;;3.40;99.90;;;-141.84;61.97;19082.25;5070108;28;20575;-64
2023/03/05 00:54:02;;;;;;;6.67;1.83;;;3.30;99.90;;;-141.84;61.77;19096.47;5069197;28;20767;-64
2023/03/05 00:56:30;;;;;;;3.53;1.53;;;3.30;99.90;;;-141.84;61.07;19098.50;5070504;28;20205;-64
2023/03/05 00:59:00;;;;;;;5.20;1.43;;;3.30;99.90;;;-141.84;60.85;19078.19;5069917;28;20228;-64
2023/03/05 01:01:28;;;;;;;4.67;1.23;;;3.30;99.90;;;-141.84;59.77;19122.91;5069773;28;20227;-64
2023/03/05 01:03:58;;;;;;;6.37;1.50;;;3.40;99.90;;;-141.84;60.05;19084.28;5070235;28;20720;-63
2023/03/05 01:06:27;;;;;;;2.13;1.00;;;3.40;99.90;;;-141.84;60.73;19057.88;5073181;28;20250;-63
2023/03/05 01:08:56;;;;;;;2.60;0.93;;;3.30;99.90;;;-141.84;61.18;19102.56;5073292;28;20620;-63
2023/03/05 01:11:24;;;;;;;4.60;1.13;;;3.20;99.90;;;-141.84;60.21;19057.88;5074491;28;20198;-64
2023/03/05 01:13:53;;;;;;;1.93;1.00;;;3.30;99.90;;;-141.84;60.26;19114.78;5073666;28;20234;-63
2023/03/05 01:16:22;;;;;;;3.80;1.03;;;3.20;99.90;;;-141.84;60.12;19112.75;5073653;28;20228;-64
2023/03/05 01:18:51;;;;;;;3.23;1.03;;;3.20;99.90;;;-141.84;60.47;19066.00;5073543;28;20655;-63
2023/03/05 01:21:20;;;;;;;3.90;1.13;;;3.20;99.90;;;-141.84;60.47;19094.44;5073406;28;20705;-63
2023/03/05 01:23:49;;;;;;;2.73;1.30;;;3.30;99.90;;;-141.84;60.75;19082.25;5073058;28;20542;-63
2023/03/05 01:26:17;;;;;;;4.27;1.13;;;3.20;99.90;;;-141.84;60.79;19080.22;5074006;28;20568;-64
2023/03/05 01:28:45;;;;;;;2.50;1.10;;;3.10;99.90;;;-141.84;61.47;19086.31;5073574;28;20618;-64
2023/03/05 01:31:13;;;;;;;2.87;1.00;;;3.10;99.90;;;-141.84;61.08;19106.66;5073343;28;20228;-64
2023/03/05 01:33:43;;;;;;;2.97;0.90;;;3.10;99.90;;;-141.84;60.84;19120.88;5073518;28;20235;-63
2023/03/05 01:36:15;;;;;;;3.07;1.10;;;3.20;99.90;;;-141.84;61.06;19108.69;5081999;28;20229;-64
2023/03/05 01:38:45;;;;;;;2.20;0.80;;;3.20;99.90;;;-141.84;61.70;19047.72;5075027;28;20236;-64
2023/03/05 01:41:16;;;;;;;4.43;1.17;;;3.10;99.90;;;-141.84;61.19;19086.31;5073019;28;20202;-63
2023/03/05 01:43:46;;;;;;;4.50;1.17;;;3.10;99.90;;;-141.84;61.09;19057.88;5073438;28;20226;-64
2023/03/05 01:46:36;;;;;;;2.87;1.07;;;3.10;99.90;;;-141.84;61.29;19094.44;5072989;28;20225;-64
2023/03/05 01:49:19;;;;;;;5.73;1.10;;;3.10;99.90;;;-141.84;61.37;19078.19;5053491;28;20227;-65
2023/03/05 01:52:10;;;;;;;4.87;1.13;;;3.10;99.90;;;-141.84;61.07;19070.06;5053051;28;20233;-65
2023/03/05 01:54:44;;;;;;;4.70;1.50;;;3.10;99.90;;;-141.84;61.43;19084.28;5052831;28;20750;-64
2023/03/05 01:57:17;;;;;;;3.63;1.00;;;3.10;99.90;;;-141.84;61.51;19059.91;5053000;28;20222;-64
2023/03/05 01:59:50;;;;;;;4.43;1.17;;;3.10;99.90;;;-141.84;61.99;19047.72;5053519;28;20187;-64
2023/03/05 02:02:21;;;;;;;5.07;1.30;;;3.10;99.90;;;-141.84;61.82;19045.69;5061882;28;20195;-64
2023/03/05 02:04:56;;;;;;;3.90;1.37;;;3.10;99.90;;;-141.84;62.00;19078.19;5072672;28;20717;-63
2023/03/05 02:07:26;;;;;;;5.77;1.20;;;3.10;99.90;;;-141.84;61.40;19053.81;5072040;28;20228;-64
2023/03/05 02:09:54;;;;;;;3.17;1.13;;;3.10;99.90;;;-141.84;62.35;19055.84;5072613;28;20228;-64
2023/03/05 02:12:23;;;;;;;4.57;1.10;;;3.10;99.90;;;-141.84;62.67;19039.59;5072952;28;20224;-65
2023/03/05 02:14:58;;;;;;;5.30;1.27;;;3.10;99.90;;;-141.84;62.63;19080.22;5072999;28;20226;-64
2023/03/05 02:17:27;;;;;;;4.30;1.20;;;3.00;99.90;;;-141.84;62.93;19066.00;5072243;28;20632;-64
2023/03/05 02:20:09;;;;;;;7.30;1.20;;;3.00;99.90;;;-141.84;63.10;19074.13;5072605;28;20249;-66
2023/03/05 02:22:38;;;;;;;3.53;1.00;;;3.00;99.90;;;-141.84;63.13;19076.16;5072003;28;20755;-64
2023/03/05 02:25:20;;;;;;;2.37;1.13;;;3.00;99.90;;;-141.84;64.11;19031.47;5072674;28;20535;-64
2023/03/05 02:27:58;;;;;;;4.97;1.13;;;2.90;99.90;;;-141.84;63.95;19055.84;5072523;28;20227;-65
2023/03/05 02:30:26;;;;;;;2.43;0.90;;;2.90;99.90;;;-141.84;63.48;19080.22;5072662;28;20719;-64
2023/03/05 02:32:55;;;;;;;3.83;1.27;;;3.00;99.90;;;-141.84;64.08;19003.00;5072477;28;20217;-63
2023/03/05 02:35:24;;;;;;;4.80;1.43;;;2.90;99.90;;;-141.84;64.07;19051.78;5074314;28;20703;-65
2023/03/05 02:37:54;;;;;;;1.60;1.00;;;2.90;99.90;;;-141.84;63.50;19053.81;5071415;28;20383;-65
2023/03/05 02:40:22;;;;;;;2.87;1.00;;;3.00;99.90;;;-141.84;63.78;19070.06;5071662;28;20723;-63
2023/03/05 02:42:51;;;;;;;4.47;1.07;;;3.00;99.90;;;-141.84;64.13;19074.13;5072291;28;20242;-64
2023/03/05 02:45:19;;;;;;;3.90;1.20;;;2.90;99.90;;;-141.84;64.49;19029.44;5072248;28;20227;-64
2023/03/05 02:47:48;;;;;;;5.47;1.10;;;2.90;99.90;;;-141.84;64.21;19041.63;5072368;28;20197;-64
2023/03/05 02:50:16;;;;;;;4.10;1.50;;;2.90;99.90;;;-141.84;64.95;19063.97;5072264;28;20669;-65
2023/03/05 02:52:44;;;;;;;3.10;1.40;;;2.90;99.90;;;-141.84;65.27;19025.38;5071997;28;20228;-64
2023/03/05 02:55:14;;;;;;;2.87;1.60;;;2.90;99.90;;;-141.84;65.84;19031.47;5067697;28;20310;-64
2023/03/05 02:57:42;;;;;;;5.50;2.10;;;2.80;99.90;;;-141.84;66.66;19029.44;5071624;28;20228;-64
2023/03/05 03:00:12;;;;;;;5.03;1.73;;;2.80;99.90;;;-141.84;67.14;19017.25;5071726;28;20229;-64
2023/03/05 03:02:40;;;;;;;3.63;1.73;;;3.00;99.90;;;-141.84;67.19;19025.38;5072235;28;20266;-63
2023/03/05 03:05:09;;;;;;;5.37;1.90;;;2.80;99.90;;;-141.84;67.37;19025.38;5071996;28;20216;-63
2023/03/05 03:07:37;;;;;;;3.33;1.80;;;2.80;99.90;;;-141.84;67.66;19033.50;5071313;28;20619;-63
2023/03/05 03:10:07;;;;;;;3.90;1.83;;;2.80;99.90;;;-141.84;67.70;19019.28;5071664;28;20228;-65
2023/03/05 03:12:39;;;;;;;5.57;1.97;;;2.80;99.90;;;-141.84;67.73;18996.91;5071494;28;20218;-64
2023/03/05 03:15:10;;;;;;;3.10;1.60;;;2.80;99.90;;;-141.84;67.48;19029.44;5071748;28;20662;-65
2023/03/05 03:17:39;;;;;;;4.73;1.77;;;2.80;99.90;;;-141.84;67.89;19041.63;5071946;28;20523;-64
2023/03/05 03:20:12;;;;;;;7.20;2.10;;;2.80;99.90;;;-141.84;68.16;19053.81;5071173;28;20278;-64
2023/03/05 03:22:42;;;;;;;3.33;2.00;;;2.70;99.90;;;-141.84;68.08;19059.91;5070929;28;20931;-63
2023/03/05 03:25:11;;;;;;;4.77;1.80;;;2.70;99.90;;;-141.84;68.62;19029.44;5072046;28;20227;-63
2023/03/05 03:27:41;;;;;;;3.53;1.70;;;2.70;99.90;;;-141.84;68.80;19013.16;5072652;28;20232;-64
2023/03/05 03:30:12;;;;;;;4.37;2.20;;;2.70;99.90;;;-141.84;68.05;19009.09;5070722;28;20225;-64
2023/03/05 03:32:40;;;;;;;5.93;2.27;;;2.70;99.90;;;-141.84;68.04;19025.38;5071742;28;20575;-63
2023/03/05 03:35:11;;;;;;;4.90;2.10;;;2.70;99.90;;;-141.84;68.24;19043.66;5071653;28;20227;-65
2023/03/05 03:37:39;;;;;;;4.93;2.20;;;2.80;99.90;;;-141.84;67.63;19063.97;5071059;28;20236;-65
2023/03/05 03:40:10;;;;;;;3.53;1.80;;;2.90;99.90;;;-141.84;68.38;19009.09;5071301;28;20223;-65
2023/03/05 03:42:39;;;;;;;4.43;1.83;;;2.80;99.90;;;-141.84;68.71;18988.78;5071227;28;20239;-65
2023/03/05 03:45:10;;;;;;;3.50;2.20;;;2.70;99.90;;;-141.84;69.43;18994.88;5071013;28;20223;-65
2023/03/05 03:47:38;;;;;;;3.70;1.83;;;2.60;99.90;;;-141.84;69.45;18986.75;5071243;28;20709;-64
2023/03/05 03:50:07;;;;;;;3.10;1.70;;;2.50;99.90;;;-141.84;68.68;19035.53;5071050;28;20223;-65
2023/03/05 03:52:36;;;;;;;5.00;3.17;;;2.50;99.90;;;-141.84;68.96;19007.06;5070168;28;20220;-64
2023/03/05 03:55:05;;;;;;;7.23;1.97;;;2.50;99.90;;;-141.84;69.94;19007.06;5070483;28;20224;-64
2023/03/05 03:57:33;;;;;;;5.37;2.10;;;2.40;99.90;;;-141.84;70.47;19005.03;5070460;28;20216;-64
2023/03/05 04:00:05;;;;;;;6.17;2.00;;;2.30;99.90;;;-141.84;70.05;19031.47;5070784;28;20203;-64
2023/03/05 04:02:35;;;;;;;2.90;1.80;;;2.30;99.90;;;-141.84;70.13;19009.09;5068116;28;20232;-65
2023/03/05 04:05:04;;;;;;;4.17;1.90;;;2.30;99.90;;;-141.84;70.43;18988.78;5070067;28;20250;-65
2023/03/05 04:07:32;;;;;;;3.40;2.03;;;2.30;99.90;;;-141.84;69.81;18980.66;5066423;28;20216;-65
2023/03/05 04:10:00;;;;;;;3.37;1.60;;;2.30;99.90;;;-141.84;69.34;19007.06;5073255;28;20217;-64
2023/03/05 04:12:29;;;;;;;3.60;1.70;;;2.30;99.90;;;-141.84;69.45;19009.09;5069725;28;20243;-63
2023/03/05 04:14:57;;;;;;;3.30;2.07;;;2.40;99.90;;;-141.84;69.22;19017.25;5069557;28;20223;-64
2023/03/05 04:17:25;;;;;;;3.23;1.90;;;2.40;99.90;;;-141.84;68.22;18996.91;5069756;28;20216;-64
2023/03/05 04:19:55;;;;;;;4.27;1.43;;;2.40;99.90;;;-141.84;67.92;19009.09;5070161;28;20236;-64
2023/03/05 04:22:23;;;;;;;3.83;1.63;;;2.50;99.90;;;-141.84;68.38;18972.53;5070357;28;20235;-65
2023/03/05 04:24:51;;;;;;;5.43;1.50;;;2.40;99.90;;;-141.84;67.87;19043.66;5070278;28;20274;-64
2023/03/05 04:27:19;;;;;;;4.03;1.67;;;2.40;99.90;;;-141.84;67.27;19015.19;5070290;28;20281;-64
2023/03/05 04:29:47;;;;;;;3.43;1.60;;;2.50;99.90;;;-141.84;67.45;18996.91;5070002;28;20212;-64
2023/03/05 04:32:21;;;;;;;4.37;1.70;;;2.50;99.90;;;-141.84;66.91;19025.38;5070612;28;20197;-64
2023/03/05 04:34:50;;;;;;;2.90;1.40;;;2.50;99.90;;;-141.84;66.28;19029.44;5070103;28;20589;-64
2023/03/05 04:37:19;;;;;;;4.83;1.50;;;2.50;99.90;;;-141.84;65.98;19027.41;5082247;28;20257;-64
2023/03/05 04:39:48;;;;;;;3.10;1.53;;;2.50;99.90;;;-141.84;66.10;19051.78;5069480;28;20363;-65
2023/03/05 04:42:17;;;;;;;2.47;1.27;;;2.50;99.90;;;-141.84;65.51;19027.41;5070994;28;20221;-64
2023/03/05 04:44:45;;;;;;;2.40;1.30;;;2.50;99.90;;;-141.84;65.58;19033.50;5070245;28;20200;-62
2023/03/05 04:47:13;;;;;;;2.37;1.60;;;2.60;99.90;;;-141.84;66.09;19005.03;5070319;28;20601;-64
2023/03/05 04:49:41;;;;;;;2.33;1.40;;;2.50;99.90;;;-141.84;65.67;19035.53;5070310;28;20239;-64
2023/03/05 04:52:11;;;;;;;4.10;1.40;;;2.60;99.90;;;-141.84;64.73;19003.00;5069881;28;20231;-64
2023/03/05 04:54:41;;;;;;;2.27;1.20;;;2.60;99.90;;;-141.84;64.82;19061.94;5034384;28;20486;-65
2023/03/05 04:57:09;;;;;;;2.60;1.30;;;2.60;99.90;;;-141.84;65.00;19027.41;5069997;28;20721;-64
2023/03/05 04:59:37;;;;;;;2.27;1.30;;;2.60;99.90;;;-141.84;65.49;18990.81;5070170;28;20208;-64
2023/03/05 05:02:06;;;;;;;2.17;1.20;;;2.50;99.90;;;-141.84;65.53;19009.09;5069953;28;20232;-63
2023/03/05 05:04:35;;;;;;;2.23;1.10;;;2.50;99.90;;;-141.84;66.03;19035.53;5069915;28;20343;-59
2023/03/05 05:07:06;;;;;;;2.93;1.20;;;2.70;99.90;;;-141.84;66.00;19043.66;5069764;28;20231;-59
2023/03/05 05:09:34;;;;;;;2.30;1.20;;;2.50;99.90;;;-141.84;66.30;19011.13;5069922;28;20223;-60
2023/03/05 05:12:05;;;;;;;2.43;1.30;;;2.60;99.90;;;-141.84;66.65;19015.19;5069940;28;20274;-59
2023/03/05 05:14:34;;;;;;;3.07;1.13;;;2.60;99.90;;;-141.84;66.87;19027.41;5069599;28;20199;-59
2023/03/05 05:17:04;;;;;;;3.37;1.07;;;2.60;99.90;;;-141.84;66.30;19017.25;5069543;28;20225;-59
2023/03/05 05:19:32;;;;;;;4.70;1.30;;;2.60;99.90;;;-141.84;65.91;19041.63;5049758;28;20609;-59
2023/03/05 05:22:01;;;;;;;3.17;1.20;;;2.70;99.90;;;-141.84;65.98;19049.75;5049995;28;20720;-59
2023/03/05 05:24:29;;;;;;;2.57;1.20;;;2.80;99.90;;;-141.84;66.96;19009.09;5053321;28;20217;-62
2023/03/05 05:26:57;;;;;;;3.23;1.50;;;2.70;99.90;;;-141.84;66.68;19033.50;5069918;28;20209;-59
2023/03/05 05:29:27;;;;;;;2.77;1.00;;;2.80;99.90;;;-141.84;66.00;19045.69;5069606;28;20580;-60
2023/03/05 05:31:55;;;;;;;3.80;1.30;;;2.90;99.90;;;-141.84;66.51;19013.16;5069750;28;20719;-60
2023/03/05 05:34:24;;;;;;;3.80;1.10;;;2.90;99.90;;;-141.84;66.83;19025.38;5069801;28;20227;-60
2023/03/05 05:36:52;;;;;;;2.30;1.00;;;2.60;99.90;;;-141.84;67.12;19035.53;5082094;28;20708;-60
2023/03/05 05:39:20;;;;;;;2.53;1.10;;;2.90;99.90;;;-141.84;67.70;19059.91;5070066;28;20311;-61
2023/03/05 05:41:51;;;;;;;1.90;1.20;;;2.90;99.90;;;-141.84;68.17;19049.75;5070225;28;20379;-59
2023/03/05 05:44:19;;;;;;;1.93;1.00;;;2.90;99.90;;;-141.84;67.32;19037.56;5035036;28;20201;-60
2023/03/05 05:46:49;;;;;;;2.80;1.20;;;3.00;99.90;;;-141.84;67.96;19033.50;5070064;28;20221;-59
2023/03/05 05:49:17;;;;;;;4.00;1.23;;;3.00;99.90;;;-141.84;68.15;19037.56;5088175;28;20742;-60
2023/03/05 05:51:45;;;;;;;2.37;0.97;;;3.00;99.90;;;-141.84;69.04;19021.31;5090860;28;20231;-61
2023/03/05 05:54:15;;;;;;;2.80;1.10;;;2.90;99.90;;;-141.84;69.50;19000.97;5073831;28;20217;-59
2023/03/05 05:56:43;;;;;;;2.23;1.20;;;2.90;99.90;;;-141.84;69.46;19045.69;5073641;28;20541;-59
2023/03/05 05:59:12;;;;;;;1.70;1.17;;;2.90;99.90;;;-141.84;69.49;19021.31;5072843;28;20211;-59
2023/03/05 06:01:40;;;;;;;2.03;1.27;;;2.90;99.90;;;-141.84;68.43;19037.56;5073157;28;20240;-59
2023/03/05 06:04:09;;;;;;;1.77;1.03;;;2.90;99.90;;;-141.84;67.84;19051.78;5073088;28;20227;-59
2023/03/05 06:06:38;;;;;;;1.53;1.10;;;3.00;99.90;;;-141.84;67.24;19059.91;5072695;28;20281;-59
2023/03/05 06:09:06;;;;;;;2.00;0.97;;;3.00;99.90;;;-141.84;67.84;19037.56;5073118;28;20246;-59
2023/03/05 06:11:34;;;;;;;2.53;1.03;;;3.00;99.90;;;-141.84;67.66;19049.75;5073372;28;20329;-60
2023/03/05 06:14:03;;;;;;;3.90;1.40;;;3.10;99.90;;;-141.84;67.94;19057.88;5072327;28;20229;-59
2023/03/05 06:16:31;;;;;;;3.73;1.10;;;3.20;99.90;;;-141.84;68.45;19068.03;5072527;28;20225;-59
2023/03/05 06:19:03;;;;;;;3.50;1.50;;;3.20;99.90;;;-141.84;69.11;19015.19;5072225;28;20255;-59
2023/03/05 06:21:33;;;;;;;2.73;1.13;;;3.10;99.90;;;-141.84;69.63;19025.38;5072505;28;20256;-59
2023/03/05 06:24:02;;;;;;;1.33;1.00;;;3.00;99.90;;;-141.84;69.78;19047.72;5072419;28;20649;-61
2023/03/05 06:26:30;;;;;;;3.07;1.33;;;3.00;99.90;;;-141.84;70.56;19041.63;5073225;28;20197;-60
2023/03/05 06:28:58;;;;;;;5.53;1.10;;;2.90;99.90;;;-141.84;71.56;19021.31;5071873;28;20589;-59
2023/03/05 06:31:29;;;;;;;1.40;0.93;;;2.90;99.90;;;-141.84;71.67;18976.59;5072480;28;20257;-59
2023/03/05 06:34:01;;;;;;;2.77;1.53;;;2.90;99.90;;;-141.84;72.12;19017.25;5072710;28;20237;-60
2023/03/05 06:36:30;;;;;;;2.13;1.40;;;2.90;99.90;;;-141.84;72.59;19051.78;5083976;28;20609;-59
2023/03/05 06:38:59;;;;;;;2.93;1.50;;;2.90;99.90;;;-141.84;73.22;19025.38;5072698;28;20202;-59
2023/03/05 06:41:31;;;;;;;4.97;1.40;;;2.90;99.90;;;-141.84;73.17;19029.44;5053013;28;20581;-59
2023/03/05 06:44:02;;;;;;;2.37;1.10;;;3.00;99.90;;;-141.84;74.35;19013.16;5051711;28;20241;-60
2023/03/05 06:46:33;;;;;;;3.33;1.53;;;2.90;99.90;;;-141.84;74.17;19005.03;5052204;28;20228;-59
2023/03/05 06:49:04;;;;;;;3.10;1.30;;;2.90;99.90;;;-141.84;73.72;19007.06;5052514;28;20603;-59
2023/03/05 06:51:35;;;;;;;2.63;1.23;;;3.00;99.90;;;-141.84;73.54;19033.50;5071941;28;20308;-59
2023/03/05 06:54:08;;;;;;;3.93;1.57;;;3.10;99.90;;;-141.84;72.36;19049.75;5071912;28;20230;-59
2023/03/05 06:56:38;;;;;;;3.43;1.40;;;3.30;99.90;;;-141.84;72.46;19049.75;5072609;28;20222;-59
2023/03/05 06:59:07;;;;;;;2.80;1.40;;;3.30;99.90;;;-141.84;72.94;19063.97;5071365;28;20228;-61
2023/03/05 07:01:35;;;;;;;1.70;1.50;;;3.30;99.90;;;-141.84;72.10;19029.44;5036303;28;20650;-61
2023/03/05 07:04:05;;;;;;;3.50;1.60;;;3.30;99.90;;;-141.84;73.25;19000.97;5071736;28;20604;-59
2023/03/05 07:06:38;;;;;;;4.83;1.60;;;3.20;99.90;;;-141.84;73.20;19029.44;5069370;28;20704;-59
2023/03/05 07:09:11;;;;;;;6.07;1.67;;;3.20;99.90;;;-141.84;73.10;19009.09;5051887;28;20579;-60
2023/03/05 07:11:39;;;;;;;3.10;1.53;;;3.20;99.90;;;-141.84;72.18;19027.41;5064880;28;20191;-59
2023/03/05 07:14:07;;;;;;;2.90;2.03;;;3.20;99.90;;;-141.84;71.29;19027.41;5071051;28;20223;-59
2023/03/05 07:16:35;;;;;;;3.63;1.50;;;3.30;99.90;;;-141.84;70.96;19068.03;5071379;28;20225;-60
2023/03/05 07:19:06;;;;;;;2.47;1.40;;;3.40;99.90;;;-141.84;70.32;19039.59;5070975;28;20714;-59
2023/03/05 07:21:35;;;;;;;2.40;1.43;;;3.30;99.90;;;-141.84;70.90;19047.72;5071458;28;20309;-58
2023/03/05 07:24:08;;;;;;;3.57;1.60;;;3.50;99.90;;;-141.84;70.72;19043.66;5071527;28;20282;-59
2023/03/05 07:26:37;;;;;;;4.63;1.70;;;3.50;99.90;;;-141.84;71.20;19037.56;5071918;28;20187;-59
2023/03/05 07:29:05;;;;;;;4.87;1.77;;;3.40;99.90;;;-141.84;71.21;19057.88;5071054;28;20229;-59
2023/03/05 07:31:33;;;;;;;4.00;1.80;;;3.40;99.90;;;-141.84;71.73;19031.47;5071168;28;20232;-60
2023/03/05 07:34:05;;;;;;;4.13;1.60;;;3.40;99.90;;;-141.84;72.15;19070.06;5071130;28;20725;-58
2023/03/05 07:36:33;;;;;;;5.37;1.83;;;3.40;99.90;;;-141.84;71.96;19045.69;5071228;28;20242;-59
2023/03/05 07:39:03;;;;;;;4.00;1.43;;;3.40;99.90;;;-141.84;71.91;19013.16;5051100;28;20606;-57
2023/03/05 07:41:34;;;;;;;2.97;1.60;;;3.30;99.90;;;-141.84;72.34;19013.16;5052555;28;20192;-59
2023/03/05 07:44:02;;;;;;;5.63;1.87;;;3.30;99.90;;;-141.84;71.99;19029.44;5070601;28;20248;-58
2023/03/05 07:46:33;;;;;;;3.27;1.57;;;3.30;99.90;;;-141.84;71.22;19051.78;5071776;28;20246;-59
2023/03/05 07:49:01;;;;;;;4.00;2.03;;;3.40;99.90;;;-141.84;70.55;19051.78;5084354;28;20221;-59
2023/03/05 07:51:30;;;;;;;4.27;2.00;;;3.50;99.90;;;-141.84;69.93;19070.06;5091217;28;20226;-59
2023/03/05 07:54:00;;;;;;;2.97;1.57;;;3.50;99.90;;;-141.84;70.74;19053.81;5073810;28;20209;-59
2023/03/05 07:56:31;;;;;;;3.03;2.03;;;3.50;99.90;;;-141.84;71.38;19076.16;5071549;28;20220;-59
2023/03/05 07:59:04;;;;;;;3.53;1.90;;;3.50;99.90;;;-141.84;69.62;19084.28;5070357;28;20229;-59
2023/03/05 08:01:34;;;;;;;3.90;2.17;;;3.70;99.90;;;-141.84;70.15;19070.06;5070934;28;20229;-60
2023/03/05 08:04:02;;;;;;;3.80;1.70;;;3.70;99.90;;;-141.84;70.22;19082.25;5070946;28;20228;-59
2023/03/05 08:06:31;;;;;;;5.23;2.30;;;3.80;99.90;;;-141.84;69.62;19096.47;5070571;28;20233;-60
2023/03/05 08:09:00;;;;;;;3.90;1.87;;;3.90;99.90;;;-141.84;69.22;19051.78;5050910;28;20212;-60
2023/03/05 08:11:28;;;;;;;3.70;1.77;;;3.90;99.90;;;-141.84;69.78;19086.31;5051312;28;20233;-60
2023/03/05 08:13:58;;;;;;;2.93;1.90;;;4.00;99.90;;;-141.84;67.94;19108.69;5059510;28;20247;-60
2023/03/05 08:16:28;;;;;;;3.23;2.00;;;4.10;99.90;;;-141.84;67.66;19133.06;5070094;28;20277;-60
2023/03/05 08:18:57;;;;;;;3.37;1.80;;;4.20;99.90;;;-141.84;68.03;19155.41;5069540;28;20237;-60
2023/03/05 08:21:29;;;;;;;4.37;2.17;;;4.40;99.90;;;-141.84;66.89;19126.97;5070042;28;20227;-60
2023/03/05 08:23:58;;;;;;;3.17;1.90;;;4.40;99.90;;;-141.84;66.96;19151.34;5069881;28;20191;-60
2023/03/05 08:26:29;;;;;;;5.07;1.83;;;4.50;99.90;;;-141.84;67.00;19161.50;5071178;28;20204;-58
2023/03/05 08:28:58;;;;;;;6.47;2.07;;;4.60;99.90;;;-141.84;66.44;19177.75;5069764;28;20231;-59
2023/03/05 08:31:29;;;;;;;3.37;1.83;;;4.70;99.90;;;-141.84;65.77;19175.72;5069328;28;20227;-59
2023/03/05 08:33:59;;;;;;;4.10;1.97;;;4.80;99.90;;;-141.84;65.04;19157.44;5070619;28;20224;-58
2023/03/05 08:36:28;;;;;;;2.50;1.90;;;4.90;99.90;;;-141.84;64.19;19187.91;5081742;28;20222;-60
2023/03/05 08:38:57;;;;;;;3.50;1.80;;;5.10;99.90;;;-141.84;63.21;19234.66;5070587;28;20220;-59
2023/03/05 08:41:26;;;;;;;6.57;2.90;;;5.30;99.90;;;-141.84;63.35;19208.25;5071022;28;20199;-60
2023/03/05 08:43:54;;;;;;;4.20;2.43;;;5.30;99.90;;;-141.84;63.42;19236.69;5069442;28;20232;-60
2023/03/05 08:46:22;;;;;;;3.60;2.53;;;5.30;99.90;;;-141.84;64.03;19194.03;5070120;28;20224;-58
2023/03/05 08:48:52;;;;;;;5.57;2.30;;;5.30;99.90;;;-141.84;62.16;19244.81;5069680;28;20284;-59
2023/03/05 08:51:24;;;;;;;3.27;2.00;;;5.50;99.90;;;-141.84;62.20;19220.44;5070278;28;20231;-57
2023/03/05 08:53:55;;;;;;;3.97;2.10;;;5.50;99.90;;;-141.84;62.85;19228.56;5070226;28;20287;-59
2023/03/05 08:56:25;;;;;;;3.10;1.80;;;5.60;99.90;;;-141.84;63.25;19232.63;5070887;28;20199;-60
2023/03/05 08:58:53;;;;;;;2.70;2.10;;;5.50;99.90;;;-141.84;62.89;19240.75;5069442;28;20243;-59
2023/03/05 09:01:22;;;;;;;3.70;1.70;;;5.50;99.90;;;-141.84;61.94;19246.84;5070162;28;20708;-61
2023/03/05 09:03:52;;;;;;;3.80;2.17;;;5.50;99.90;;;-141.84;62.59;19214.34;5069581;28;20253;-59
2023/03/05 09:06:21;;;;;;;3.60;2.10;;;5.40;99.90;;;-141.84;63.29;19175.72;5069578;28;20221;-59
2023/03/05 09:08:49;;;;;;;3.83;2.40;;;5.30;99.90;;;-141.84;64.39;19230.59;5068655;28;20227;-60
2023/03/05 09:11:17;;;;;;;4.97;2.13;;;5.10;99.90;;;-141.84;64.97;19165.56;5070425;28;20200;-59
2023/03/05 09:13:45;;;;;;;3.53;2.30;;;5.10;99.90;;;-141.84;64.22;19212.31;5069430;28;20288;-61
2023/03/05 09:16:17;;;;;;;4.57;2.10;;;5.10;99.90;;;-141.84;63.03;19175.72;5069867;28;20239;-59
2023/03/05 09:18:46;;;;;;;2.30;2.03;;;5.20;99.90;;;-141.84;63.87;19222.47;5069332;28;20255;-59
2023/03/05 09:21:17;;;;;;;6.83;2.50;;;5.40;99.90;;;-141.84;62.83;19267.16;5070301;28;20239;-59
2023/03/05 09:23:47;;;;;;;3.00;1.83;;;5.40;99.90;;;-141.84;62.75;19238.72;5067731;28;20216;-59
2023/03/05 09:26:18;;;;;;;3.00;2.33;;;5.50;99.90;;;-141.84;63.64;19212.31;5071752;28;20205;-58
2023/03/05 09:28:47;;;;;;;2.97;1.90;;;5.40;99.90;;;-141.84;63.59;19177.75;5070855;28;20310;-59
2023/03/05 09:31:16;;;;;;;4.50;2.10;;;5.30;99.90;;;-141.84;65.12;19151.34;5072685;28;20231;-58
2023/03/05 09:33:44;;;;;;;4.33;2.30;;;5.00;99.90;;;-141.84;66.84;19133.06;5073549;28;20243;-60
2023/03/05 09:36:22;;;;;;;4.83;2.10;;;4.80;99.90;;;-141.84;68.05;19124.94;5073440;28;20231;-59
2023/03/05 09:38:51;;;;;;;4.33;2.20;;;4.70;99.90;;;-141.84;68.54;19116.81;5072948;28;20227;-59
2023/03/05 09:41:35;;;;;;;5.03;2.50;;;4.40;99.90;;;-141.84;69.77;19126.97;5074011;28;20200;-59
2023/03/05 09:44:27;;;;;;;4.73;2.97;;;4.30;99.90;;;-141.84;70.43;19096.47;5072462;28;20242;-59
2023/03/05 09:47:08;;;;;;;6.57;2.80;;;4.10;99.90;;;-141.84;70.73;19110.72;5072081;28;20234;-58
2023/03/05 09:49:54;;;;;;;4.60;2.87;;;4.00;99.90;;;-141.84;71.99;19074.13;5053143;28;20232;-58
2023/03/05 09:52:39;;;;;;;4.17;2.77;;;3.90;99.90;;;-141.84;72.50;19102.56;5054138;28;20766;-58
2023/03/05 09:55:14;;;;;;;3.53;2.77;;;4.00;99.90;;;-141.84;71.80;19088.34;5069325;28;20231;-60
2023/03/05 09:57:51;;;;;;;4.97;2.97;;;4.10;99.90;;;-141.84;70.80;19124.94;5070452;28;20238;-60
2023/03/05 10:00:35;;;;;;;4.80;2.60;;;4.40;99.90;;;-141.84;69.90;19157.44;5071121;28;20227;-60
2023/03/05 10:03:14;;;;;;;3.83;2.60;;;4.50;99.90;;;-141.84;68.15;19202.16;5071442;28;20231;-60
2023/03/05 10:06:00;;;;;;;3.63;2.43;;;4.80;99.90;;;-141.84;68.07;19196.06;5071338;28;20287;-58
2023/03/05 10:08:44;;;;;;;4.77;2.57;;;5.10;99.90;;;-141.84;68.10;19194.03;5060529;28;20199;-57
2023/03/05 10:11:31;;;;;;;3.97;2.80;;;5.10;99.90;;;-141.84;67.83;19202.16;5052479;28;20201;-60
2023/03/05 10:13:59;;;;;;;4.13;3.07;;;5.10;99.90;;;-141.84;68.43;19155.41;5052549;28;20628;-59
2023/03/05 10:17:02;;;;;;;3.57;2.90;;;5.10;99.90;;;-141.84;68.15;19183.84;5061235;28;20719;-60
2023/03/05 10:20:19;;;;;;;4.40;3.10;;;5.00;99.90;;;-141.84;68.05;19198.09;5071828;28;20235;-59
2023/03/05 10:23:12;;;;;;;5.60;3.33;;;5.10;99.90;;;-141.84;67.64;19212.31;5042229;28;20238;-59
2023/03/05 10:25:59;;;;;;;6.37;2.70;;;5.30;99.90;;;-141.84;66.36;19226.53;5071856;28;20224;-58
2023/03/05 10:28:40;;;;;;;4.67;2.70;;;5.50;99.90;;;-141.84;65.42;19244.81;5072279;28;20224;-59